NCAR-RAP Real-Time Weather Data

Output produced by METARs form (23 February 2020  02:10 UTC)
found at http://weather.rap.ucar.edu/surface/
 
KSTC 230153Z 17005KT 9SM CLR M02/M04 A2982 RMK AO2 SLP123 T10221039
KSTC 230053Z 16006KT 10SM CLR M01/M03 A2982 RMK AO2 SLP126 T10111033